Time;durP1;ratioP1;P1;durP2;ratioP2;P2;SDS_P1;SDS_P2;PMS_P1;PMS_P2;Temp;Humidity;BMP_temperature;BMP_pressure;BME280_temperature;BME280_humidity;BME280_pressure;Samples;Min_cycle;Max_cycle;Signal;HPM_P1;HPM_P2
2024/04/11 00:00:47;;;;;;;18.75;8.27;;;9.70;99.90;;;;;;5497983;26;20070;-71
2024/04/11 00:03:13;;;;;;;16.00;7.88;;;9.70;99.90;;;;;;5498522;26;20032;-71
2024/04/11 00:05:40;;;;;;;16.23;7.50;;;9.70;99.90;;;;;;5497388;26;19998;-72
2024/04/11 00:08:06;;;;;;;13.82;7.60;;;9.70;99.90;;;;;;5494089;26;20001;-71
2024/04/11 00:10:32;;;;;;;14.65;7.60;;;9.70;99.90;;;;;;5498831;26;20017;-72
2024/04/11 00:12:57;;;;;;;15.15;7.55;;;9.70;99.90;;;;;;5499192;26;19998;-71
2024/04/11 00:15:23;;;;;;;14.88;7.57;;;9.70;99.90;;;;;;5498184;26;20392;-72
2024/04/11 00:17:48;;;;;;;14.95;7.13;;;9.80;99.90;;;;;;5498571;26;20016;-73
2024/04/11 00:20:14;;;;;;;18.58;7.40;;;9.70;99.90;;;;;;5498525;26;20002;-70
2024/04/11 00:22:40;;;;;;;18.05;7.82;;;9.80;99.90;;;;;;5498896;26;20044;-71
2024/04/11 00:25:06;;;;;;;18.63;7.20;;;9.70;99.90;;;;;;5497946;26;20005;-71
2024/04/11 00:27:33;;;;;;;15.45;7.65;;;9.80;99.90;;;;;;5497393;26;20001;-71
2024/04/11 00:29:59;;;;;;;17.30;7.28;;;9.80;99.90;;;;;;5496235;26;20009;-71
2024/04/11 00:32:25;;;;;;;12.98;7.40;;;9.80;99.90;;;;;;5496978;26;19998;-72
2024/04/11 00:34:50;;;;;;;18.08;7.82;;;9.80;99.90;;;;;;5499103;26;20029;-71
2024/04/11 00:37:16;;;;;;;14.45;7.85;;;9.60;99.90;;;;;;5495523;26;20002;-71
2024/04/11 00:39:41;;;;;;;13.60;7.65;;;9.80;99.90;;;;;;5496660;26;19994;-72
2024/04/11 00:42:07;;;;;;;13.90;7.60;;;9.80;99.90;;;;;;5498707;26;20024;-71
2024/04/11 00:44:37;;;;;;;13.88;7.70;;;9.80;99.90;;;;;;5497991;26;20009;-72
2024/04/11 00:47:09;;;;;;;15.77;7.45;;;9.80;99.90;;;;;;5497638;26;19994;-71
2024/04/11 00:49:37;;;;;;;14.32;7.28;;;9.80;99.90;;;;;;5497417;26;20027;-72
2024/04/11 00:52:03;;;;;;;16.30;7.55;;;9.80;99.90;;;;;;5498219;26;20013;-71
2024/04/11 00:54:29;;;;;;;16.50;7.70;;;9.80;99.90;;;;;;5497720;26;20423;-72
2024/04/11 00:56:59;;;;;;;12.85;6.50;;;9.80;99.90;;;;;;5495496;26;20059;-72
2024/04/11 00:59:24;;;;;;;17.80;7.70;;;9.80;99.90;;;;;;5496449;26;19998;-71
2024/04/11 01:01:51;;;;;;;15.75;6.60;;;9.90;99.90;;;;;;5496683;26;20021;-71
2024/04/11 01:04:17;;;;;;;12.38;6.75;;;9.90;99.90;;;;;;5497924;26;20006;-72
2024/04/11 01:07:06;;;;;;;19.90;7.10;;;9.90;99.90;;;;;;5498313;26;20078;-71
2024/04/11 01:09:32;;;;;;;12.68;6.43;;;9.90;99.90;;;;;;5497681;26;20017;-71
2024/04/11 01:11:58;;;;;;;12.73;6.32;;;9.90;99.90;;;;;;5497632;26;20017;-71
2024/04/11 01:14:24;;;;;;;11.60;5.88;;;9.90;99.90;;;;;;5496438;26;20017;-71
2024/04/11 01:16:50;;;;;;;14.35;6.88;;;9.80;99.90;;;;;;5497346;26;19998;-72
2024/04/11 01:19:16;;;;;;;15.52;6.80;;;9.90;99.90;;;;;;5498095;26;20017;-71
2024/04/11 01:21:42;;;;;;;12.32;6.45;;;9.80;99.90;;;;;;5496734;26;20008;-71
2024/04/11 01:24:08;;;;;;;10.82;5.60;;;9.80;99.90;;;;;;5496258;26;20017;-71
2024/04/11 01:26:35;;;;;;;12.00;5.88;;;9.80;99.90;;;;;;5497666;26;19998;-71
2024/04/11 01:29:01;;;;;;;12.00;5.78;;;9.80;99.90;;;;;;5493085;26;19998;-72
2024/04/11 01:31:28;;;;;;;12.23;5.40;;;9.80;99.90;;;;;;5497749;26;19998;-70
2024/04/11 01:33:54;;;;;;;8.95;5.65;;;9.80;99.90;;;;;;5498004;26;20025;-72
2024/04/11 01:36:20;;;;;;;10.77;5.82;;;9.80;99.90;;;;;;5496289;26;20092;-72
2024/04/11 01:38:46;;;;;;;12.20;5.72;;;9.80;99.90;;;;;;5496788;26;19998;-71
2024/04/11 01:41:12;;;;;;;10.77;5.97;;;9.80;99.90;;;;;;5495468;26;19998;-71
2024/04/11 01:43:38;;;;;;;13.90;5.80;;;9.80;99.90;;;;;;5498001;26;20017;-72
2024/04/11 01:46:03;;;;;;;14.20;5.30;;;9.80;99.90;;;;;;5496919;26;20006;-71
2024/04/11 01:48:29;;;;;;;14.02;5.50;;;9.80;99.90;;;;;;5496238;26;20364;-71
2024/04/11 01:50:55;;;;;;;10.93;5.43;;;9.80;99.90;;;;;;5497601;26;20096;-72
2024/04/11 01:53:21;;;;;;;10.35;5.22;;;9.80;99.90;;;;;;5497223;26;19998;-72
2024/04/11 01:55:47;;;;;;;12.07;5.85;;;9.80;99.90;;;;;;5496888;26;20002;-71
2024/04/11 01:58:15;;;;;;;10.73;5.03;;;9.80;99.90;;;;;;5495368;26;20037;-72
2024/04/11 02:00:43;;;;;;;12.55;5.00;;;9.80;99.90;;;;;;5497410;26;20002;-71
2024/04/11 02:03:09;;;;;;;11.48;4.90;;;9.80;99.90;;;;;;5494855;26;19998;-71
2024/04/11 02:05:35;;;;;;;11.75;4.30;;;9.80;99.90;;;;;;5497271;26;19998;-72
2024/04/11 02:08:01;;;;;;;11.73;4.53;;;9.80;99.90;;;;;;5497679;26;20009;-71
2024/04/11 02:10:29;;;;;;;8.25;3.90;;;9.80;99.90;;;;;;5494665;26;20051;-71
2024/04/11 02:12:56;;;;;;;10.82;4.15;;;9.90;99.90;;;;;;5496943;26;20018;-71
2024/04/11 02:15:23;;;;;;;12.15;4.55;;;9.90;99.90;;;;;;5496961;26;20013;-71
2024/04/11 02:17:49;;;;;;;9.15;3.80;;;9.90;99.90;;;;;;5496398;26;20039;-70
2024/04/11 02:20:16;;;;;;;12.02;4.10;;;10.00;99.90;;;;;;5496134;26;20013;-71
2024/04/11 02:22:43;;;;;;;10.30;3.88;;;10.00;99.90;;;;;;5495221;26;20009;-70
2024/04/11 02:25:09;;;;;;;14.30;4.03;;;10.10;99.90;;;;;;5494089;26;20006;-71
2024/04/11 02:27:35;;;;;;;10.13;3.80;;;10.10;99.90;;;;;;5497325;26;20002;-71
2024/04/11 02:30:03;;;;;;;10.38;3.72;;;10.10;99.90;;;;;;5495790;26;20023;-72
2024/04/11 02:32:30;;;;;;;9.93;3.30;;;10.10;99.90;;;;;;5496368;26;20318;-71
2024/04/11 02:34:56;;;;;;;10.45;3.92;;;10.20;99.90;;;;;;5494925;26;20026;-71
2024/04/11 02:37:22;;;;;;;9.27;3.33;;;10.20;99.90;;;;;;5495595;26;19998;-72
2024/04/11 02:39:47;;;;;;;8.48;3.25;;;10.20;99.90;;;;;;5496491;26;20010;-71
2024/04/11 02:42:13;;;;;;;7.60;3.28;;;10.30;99.90;;;;;;5499594;26;20070;-71
2024/04/11 02:44:40;;;;;;;9.55;3.45;;;10.30;99.90;;;;;;5499208;26;20002;-71
2024/04/11 02:47:05;;;;;;;9.02;3.00;;;10.30;99.90;;;;;;5499591;26;20079;-71
2024/04/11 02:49:31;;;;;;;6.50;2.67;;;10.30;99.90;;;;;;5500352;26;19998;-70
2024/04/11 02:51:57;;;;;;;9.40;3.20;;;10.30;99.90;;;;;;5499080;26;20009;-72
2024/04/11 02:54:23;;;;;;;10.05;3.00;;;10.30;99.90;;;;;;5498181;26;20002;-71
2024/04/11 02:56:49;;;;;;;10.60;3.67;;;10.40;99.90;;;;;;5500003;26;19998;-71
2024/04/11 02:59:14;;;;;;;8.20;3.35;;;10.40;99.90;;;;;;5499095;26;20010;-72
2024/04/11 03:01:41;;;;;;;10.82;3.03;;;10.40;99.90;;;;;;5499112;26;19998;-71
2024/04/11 03:04:08;;;;;;;11.32;3.70;;;10.50;99.90;;;;;;5499708;26;20074;-71
2024/04/11 03:06:35;;;;;;;10.20;3.42;;;10.50;99.90;;;;;;5498961;26;20010;-72
2024/04/11 03:09:01;;;;;;;7.45;3.25;;;10.50;99.90;;;;;;5499733;26;20002;-70
2024/04/11 03:11:27;;;;;;;12.15;3.63;;;10.50;99.90;;;;;;5499692;26;20001;-72
2024/04/11 03:13:57;;;;;;;9.00;3.30;;;10.60;99.90;;;;;;5498722;26;20040;-70
2024/04/11 03:16:24;;;;;;;13.80;3.58;;;10.60;99.90;;;;;;5499345;26;20346;-72
2024/04/11 03:18:51;;;;;;;9.95;3.60;;;10.60;99.90;;;;;;5499829;26;20014;-71
2024/04/11 03:21:17;;;;;;;10.90;3.55;;;10.70;99.90;;;;;;5497009;26;20483;-71
2024/04/11 03:23:44;;;;;;;13.43;3.97;;;10.70;99.90;;;;;;5499889;26;19994;-71
2024/04/11 03:26:10;;;;;;;13.15;3.42;;;10.70;99.90;;;;;;5498412;26;19998;-70
2024/04/11 03:28:36;;;;;;;11.57;3.70;;;10.70;99.90;;;;;;5498919;26;20485;-70
2024/04/11 03:31:04;;;;;;;10.75;3.47;;;10.80;99.90;;;;;;5497376;26;20006;-71
2024/04/11 03:33:32;;;;;;;9.45;3.45;;;10.80;99.90;;;;;;5499099;26;20006;-73
2024/04/11 03:36:06;;;;;;;11.48;3.15;;;10.80;99.90;;;;;;5495551;26;20013;-72
2024/04/11 03:38:32;;;;;;;10.13;3.40;;;10.80;99.90;;;;;;5496924;26;20006;-73
2024/04/11 03:41:07;;;;;;;9.50;3.22;;;10.80;99.90;;;;;;5495727;26;20099;-72
2024/04/11 03:43:34;;;;;;;6.72;2.90;;;10.80;99.90;;;;;;5486961;26;19998;-73
2024/04/11 03:46:09;;;;;;;13.13;3.20;;;10.80;99.90;;;;;;5490755;26;20022;-72
2024/04/11 03:48:36;;;;;;;8.45;3.03;;;10.80;99.90;;;;;;5493115;26;19994;-73
2024/04/11 03:51:13;;;;;;;10.95;3.15;;;10.80;99.90;;;;;;5498617;26;19997;-72
2024/04/11 03:53:40;;;;;;;10.52;2.78;;;10.80;99.90;;;;;;5497716;26;20028;-74
2024/04/11 03:56:07;;;;;;;10.50;2.72;;;10.90;99.90;;;;;;5497583;26;20079;-73
2024/04/11 03:58:37;;;;;;;9.20;3.00;;;10.80;99.90;;;;;;5499176;26;20056;-72
2024/04/11 04:01:12;;;;;;;9.85;2.35;;;10.80;99.90;;;;;;5497329;26;20015;-73
2024/04/11 04:03:43;;;;;;;12.27;2.80;;;10.80;99.90;;;;;;5495493;26;20025;-72
2024/04/11 04:06:10;;;;;;;5.95;2.35;;;10.90;99.90;;;;;;5497112;26;20002;-71
2024/04/11 04:08:38;;;;;;;14.15;3.30;;;10.90;99.90;;;;;;5497314;26;20060;-71
2024/04/11 04:11:05;;;;;;;6.40;2.70;;;10.90;99.90;;;;;;5496070;26;20006;-71
2024/04/11 04:13:37;;;;;;;15.65;3.58;;;10.90;99.90;;;;;;5495370;26;19998;-74
2024/04/11 04:16:08;;;;;;;10.93;3.10;;;10.90;99.90;;;;;;5495517;26;20043;-72
2024/04/11 04:18:36;;;;;;;7.82;2.72;;;10.90;99.90;;;;;;5498724;26;19998;-71
2024/04/11 04:21:04;;;;;;;7.88;2.20;;;10.90;99.90;;;;;;5497356;26;20006;-72
2024/04/11 04:23:30;;;;;;;10.50;2.55;;;10.90;99.90;;;;;;5493060;26;20047;-72
2024/04/11 04:26:02;;;;;;;7.95;2.70;;;10.90;99.90;;;;;;5497735;26;20025;-72
2024/04/11 04:28:30;;;;;;;8.32;2.55;;;10.90;99.90;;;;;;5495640;26;20055;-72
2024/04/11 04:31:17;;;;;;;10.73;2.55;;;11.00;99.90;;;;;;5497330;26;20018;-72
2024/04/11 04:33:47;;;;;;;14.52;2.95;;;11.00;99.90;;;;;;5497262;26;19994;-70
2024/04/11 04:36:20;;;;;;;10.25;2.80;;;11.00;99.90;;;;;;5492579;26;20319;-71
2024/04/11 04:38:52;;;;;;;9.13;2.67;;;11.00;99.90;;;;;;5496303;26;20044;-73
2024/04/11 04:41:20;;;;;;;10.13;2.83;;;11.00;99.90;;;;;;5496785;26;20462;-72
2024/04/11 04:43:54;;;;;;;10.20;2.55;;;10.90;99.90;;;;;;5492287;26;19994;-72
2024/04/11 04:46:28;;;;;;;;;;;11.00;99.90;;;;;;5496026;26;20022;-75
2024/04/11 04:48:55;;;;;;;12.32;2.67;;;11.00;99.90;;;;;;5496968;26;19928;-70
2024/04/11 04:51:26;;;;;;;11.23;2.83;;;11.00;99.90;;;;;;5499058;26;20382;-72
2024/04/11 04:53:53;;;;;;;9.60;2.67;;;11.10;99.90;;;;;;5495900;26;20009;-71
2024/04/11 04:56:22;;;;;;;11.07;2.53;;;11.10;99.90;;;;;;5497945;26;20051;-73
2024/04/11 04:58:49;;;;;;;12.18;2.92;;;11.20;99.90;;;;;;5498196;26;20022;-72
2024/04/11 05:01:15;;;;;;;8.98;2.95;;;11.10;99.90;;;;;;5496787;26;20006;-73
2024/04/11 05:03:43;;;;;;;11.43;2.90;;;11.10;99.90;;;;;;5496310;26;20004;-72
2024/04/11 05:06:09;;;;;;;10.95;2.70;;;11.20;99.90;;;;;;5497485;26;19998;-74
2024/04/11 05:08:35;;;;;;;10.10;2.78;;;11.20;99.90;;;;;;5498235;26;20005;-74
2024/04/11 05:11:12;;;;;;;10.90;3.20;;;11.20;99.90;;;;;;5496439;26;20006;-72
2024/04/11 05:13:42;;;;;;;10.32;3.10;;;11.20;99.90;;;;;;5494304;26;19998;-72
2024/04/11 05:16:09;;;;;;;13.30;2.80;;;11.30;99.90;;;;;;5494877;26;20002;-72
2024/04/11 05:18:37;;;;;;;9.23;2.55;;;11.30;99.90;;;;;;5497036;26;20774;-70
2024/04/11 05:21:19;;;;;;;10.60;3.20;;;11.30;99.90;;;;;;5493711;26;19994;-72
2024/04/11 05:23:45;;;;;;;8.32;2.60;;;11.30;99.90;;;;;;5495772;26;20002;-72
2024/04/11 05:26:23;;;;;;;12.35;2.53;;;11.30;99.90;;;;;;5497965;26;20009;-72
2024/04/11 05:28:51;;;;;;;14.55;2.92;;;11.40;99.90;;;;;;5497897;26;20020;-72
2024/04/11 05:31:18;;;;;;;11.02;2.67;;;11.40;99.90;;;;;;5493386;26;20021;-74
2024/04/11 05:33:53;;;;;;;13.38;2.80;;;11.50;99.90;;;;;;5498341;26;19998;-73
2024/04/11 05:36:21;;;;;;;11.32;3.28;;;11.50;99.90;;;;;;5495708;26;20041;-74
2024/04/11 05:38:48;;;;;;;9.30;2.83;;;11.50;99.90;;;;;;5497193;26;19998;-73
2024/04/11 05:41:14;;;;;;;8.13;2.90;;;11.60;99.90;;;;;;5497226;26;20012;-73
2024/04/11 05:43:43;;;;;;;9.98;2.30;;;11.60;99.90;;;;;;5496514;26;19998;-72
2024/04/11 05:46:17;;;;;;;10.55;2.20;;;11.60;99.90;;;;;;5495739;26;20018;-74
2024/04/11 05:48:49;;;;;;;10.35;2.13;;;11.70;99.90;;;;;;5496292;26;20590;-74
2024/04/11 05:51:16;;;;;;;7.65;1.95;;;11.70;99.90;;;;;;5497144;26;20369;-74
2024/04/11 05:53:42;;;;;;;5.97;1.52;;;11.80;99.90;;;;;;5497123;26;20006;-72
2024/04/11 05:56:12;;;;;;;6.70;2.00;;;11.80;99.90;;;;;;5495960;26;20002;-73
2024/04/11 05:58:38;;;;;;;12.60;1.75;;;11.80;99.90;;;;;;5496136;26;20051;-72
2024/04/11 06:01:09;;;;;;;8.85;2.00;;;11.80;99.90;;;;;;5495622;26;19998;-75
2024/04/11 06:03:41;;;;;;;6.90;1.85;;;11.80;99.90;;;;;;5496748;26;20006;-74
2024/04/11 06:06:13;;;;;;;10.30;2.10;;;11.80;99.90;;;;;;5494529;26;20317;-72
2024/04/11 06:08:50;;;;;;;7.55;1.90;;;11.80;99.90;;;;;;5495565;26;19998;-71
2024/04/11 06:11:19;;;;;;;5.57;2.08;;;11.80;99.90;;;;;;5496740;26;20010;-75
2024/04/11 06:13:46;;;;;;;5.75;2.20;;;11.80;99.90;;;;;;5497380;26;20114;-72
2024/04/11 06:16:12;;;;;;;7.88;1.77;;;11.80;99.90;;;;;;5493039;26;20014;-74
2024/04/11 06:18:38;;;;;;;7.53;1.75;;;11.80;99.90;;;;;;5497340;26;19998;-74
2024/04/11 06:21:05;;;;;;;9.43;2.05;;;11.80;99.90;;;;;;5496277;26;20010;-75
2024/04/11 06:23:31;;;;;;;10.93;2.20;;;11.70;99.90;;;;;;5496381;26;20038;-72
2024/04/11 06:25:58;;;;;;;9.32;2.00;;;11.70;99.90;;;;;;5496194;26;20099;-77
2024/04/11 06:28:24;;;;;;;9.30;1.88;;;11.60;99.90;;;;;;5496149;26;20388;-77
2024/04/11 06:30:51;;;;;;;12.13;2.08;;;11.50;99.90;;;;;;5496312;26;20502;-74
2024/04/11 06:33:18;;;;;;;11.75;2.42;;;11.30;99.90;;;;;;5496826;26;20010;-72
2024/04/11 06:35:47;;;;;;;9.35;2.50;;;11.20;99.90;;;;;;5496087;26;20013;-73
2024/04/11 06:38:16;;;;;;;9.02;2.42;;;11.00;99.90;;;;;;5495571;26;20006;-74
2024/04/11 06:40:45;;;;;;;5.05;2.40;;;10.90;99.90;;;;;;5496701;26;20054;-72
2024/04/11 06:43:16;;;;;;;10.13;3.10;;;10.70;99.90;;;;;;5495199;26;20025;-71
2024/04/11 06:45:43;;;;;;;12.45;2.92;;;10.60;99.90;;;;;;5496021;26;19994;-73
2024/04/11 06:48:08;;;;;;;6.43;2.65;;;10.50;99.90;;;;;;5494523;26;20030;-72
2024/04/11 06:50:34;;;;;;;13.73;2.92;;;10.30;99.90;;;;;;5494005;26;20002;-75
2024/04/11 06:53:04;;;;;;;9.40;2.88;;;10.30;99.90;;;;;;5494766;26;20732;-73
2024/04/11 06:55:30;;;;;;;10.82;3.20;;;10.20;99.90;;;;;;5494641;26;20067;-73
2024/04/11 06:57:56;;;;;;;8.10;3.22;;;10.20;99.90;;;;;;5495989;26;20013;-71
2024/04/11 07:00:26;;;;;;;14.10;3.53;;;10.10;99.90;;;;;;5489708;26;20043;-72
2024/04/11 07:02:55;;;;;;;16.88;3.50;;;10.10;99.90;;;;;;5492863;26;20352;-73
2024/04/11 07:05:25;;;;;;;7.97;3.25;;;10.10;99.90;;;;;;5495630;26;20002;-71
2024/04/11 07:07:59;;;;;;;13.63;3.75;;;10.10;99.90;;;;;;5494242;26;19994;-72
2024/04/11 07:10:25;;;;;;;;;;;10.00;99.90;;;;;;5492678;26;20044;-72
2024/04/11 07:12:59;;;;;;;11.68;3.60;;;10.00;99.90;;;;;;5493672;26;19940;-72
2024/04/11 07:15:29;;;;;;;15.25;4.25;;;10.00;99.90;;;;;;5490367;26;19998;-72
2024/04/11 07:17:57;;;;;;;13.95;4.03;;;10.00;99.90;;;;;;5491202;26;20003;-73
2024/04/11 07:20:30;;;;;;;14.98;3.70;;;9.90;99.90;;;;;;5495536;26;20483;-73
2024/04/11 07:22:59;;;;;;;11.33;3.87;;;10.00;99.90;;;;;;5493654;26;20416;-70
2024/04/11 07:25:31;;;;;;;14.18;3.85;;;9.90;99.90;;;;;;5492824;26;20243;-73
2024/04/11 07:28:00;;;;;;;11.90;3.42;;;9.90;99.90;;;;;;5494798;26;20002;-71
2024/04/11 07:30:26;;;;;;;13.35;4.85;;;9.90;99.90;;;;;;5497725;26;20050;-72
2024/04/11 07:32:52;;;;;;;7.50;3.63;;;9.90;99.90;;;;;;5498794;26;20026;-71
2024/04/11 07:35:19;;;;;;;13.00;4.22;;;9.90;99.90;;;;;;5499509;26;20017;-71
2024/04/11 07:37:45;;;;;;;13.35;4.05;;;9.90;99.90;;;;;;5497459;26;20051;-73
2024/04/11 07:40:32;;;;;;;15.55;3.92;;;9.90;99.90;;;;;;5499547;26;20013;-73
2024/04/11 07:43:08;;;;;;;13.52;4.28;;;10.00;99.90;;;;;;5499307;25;20450;-74
2024/04/11 07:45:37;;;;;;;9.35;3.85;;;10.00;99.90;;;;;;5496341;26;20021;-74
2024/04/11 07:48:04;;;;;;;8.77;3.50;;;10.00;99.90;;;;;;5494317;26;20075;-74
2024/04/11 07:50:31;;;;;;;12.85;3.78;;;10.00;99.90;;;;;;5495661;26;20006;-74
2024/04/11 07:52:57;;;;;;;15.82;4.40;;;10.00;99.90;;;;;;5494379;26;20002;-74
2024/04/11 07:55:23;;;;;;;15.88;4.10;;;10.10;99.90;;;;;;5496139;26;20005;-74
2024/04/11 07:57:51;;;;;;;10.82;3.22;;;10.10;99.90;;;;;;5496709;26;19998;-72
2024/04/11 08:00:23;;;;;;;13.07;3.45;;;10.20;99.90;;;;;;5497363;26;20011;-78
2024/04/11 08:02:49;;;;;;;18.17;3.88;;;10.20;99.90;;;;;;5499446;26;20021;-74
2024/04/11 08:05:18;;;;;;;8.90;3.90;;;10.20;99.90;;;;;;5495308;26;20012;-73
2024/04/11 08:07:44;;;;;;;15.15;4.53;;;10.20;99.90;;;;;;5494455;26;20067;-73
2024/04/11 08:10:13;;;;;;;12.98;4.20;;;10.30;99.90;;;;;;5495039;26;20018;-74
2024/04/11 08:12:40;;;;;;;13.07;4.28;;;10.30;99.90;;;;;;5494489;26;20014;-74
2024/04/11 08:15:06;;;;;;;13.48;4.50;;;10.30;99.90;;;;;;5497503;26;19997;-73
2024/04/11 08:17:37;;;;;;;11.80;4.20;;;10.40;99.90;;;;;;5497071;26;19998;-73
2024/04/11 08:20:12;;;;;;;12.98;4.25;;;10.40;99.90;;;;;;5496626;26;20006;-72
2024/04/11 08:22:38;;;;;;;16.08;4.72;;;10.50;99.90;;;;;;5496629;26;20021;-73
2024/04/11 08:25:06;;;;;;;12.98;4.05;;;10.50;99.90;;;;;;5497167;26;20010;-73
2024/04/11 08:27:32;;;;;;;18.10;4.50;;;10.50;99.90;;;;;;5492852;26;19990;-73
2024/04/11 08:29:58;;;;;;;14.05;4.60;;;10.50;99.90;;;;;;5495631;26;20010;-71
2024/04/11 08:32:25;;;;;;;21.25;7.82;;;10.50;99.90;;;;;;5496739;26;20356;-73
2024/04/11 08:34:52;;;;;;;17.08;7.55;;;10.60;99.90;;;;;;5496026;26;20009;-72
2024/04/11 08:37:19;;;;;;;14.32;5.57;;;10.70;99.90;;;;;;5497830;26;20007;-72
2024/04/11 08:39:44;;;;;;;19.55;5.22;;;10.70;99.90;;;;;;5494237;26;20041;-72
2024/04/11 08:42:12;;;;;;;11.23;4.70;;;10.70;99.90;;;;;;5496854;26;20351;-73
2024/04/11 08:44:41;;;;;;;12.15;4.35;;;10.70;99.90;;;;;;5498853;26;20005;-72
2024/04/11 08:47:06;;;;;;;14.52;5.20;;;10.70;99.90;;;;;;5494156;26;20068;-73
2024/04/11 08:49:32;;;;;;;15.40;4.75;;;10.70;99.90;;;;;;5498392;26;19998;-73
2024/04/11 08:52:00;;;;;;;13.10;4.75;;;10.70;99.90;;;;;;5498597;26;19998;-73
2024/04/11 08:54:26;;;;;;;9.95;4.25;;;10.70;99.90;;;;;;5495730;26;20009;-71
2024/04/11 08:56:52;;;;;;;11.50;4.93;;;10.70;99.90;;;;;;5495318;26;19998;-71
2024/04/11 08:59:19;;;;;;;13.70;4.93;;;10.70;99.90;;;;;;5484007;26;20013;-73
2024/04/11 09:01:45;;;;;;;10.30;4.38;;;10.80;99.90;;;;;;5483491;26;20009;-72
2024/04/11 09:04:10;;;;;;;9.98;4.72;;;10.80;99.90;;;;;;5497083;26;20005;-72
2024/04/11 09:06:36;;;;;;;10.18;4.22;;;10.80;99.90;;;;;;5497418;26;20004;-73
2024/04/11 09:09:10;;;;;;;11.02;4.50;;;10.80;99.90;;;;;;5496238;26;19994;-72
2024/04/11 09:11:39;;;;;;;13.70;4.65;;;10.80;99.90;;;;;;5498798;26;19998;-73
2024/04/11 09:14:05;;;;;;;14.10;4.75;;;10.80;99.90;;;;;;5490083;26;20010;-72
2024/04/11 09:16:33;;;;;;;8.02;3.90;;;10.80;99.90;;;;;;5495457;26;20043;-73
2024/04/11 09:19:05;;;;;;;11.52;4.40;;;10.80;99.90;;;;;;5494812;26;19994;-74
2024/04/11 09:21:32;;;;;;;17.70;5.40;;;10.70;99.90;;;;;;5497813;26;19994;-72
2024/04/11 09:23:57;;;;;;;10.85;4.57;;;10.70;99.90;;;;;;5495403;26;20394;-73
2024/04/11 09:26:27;;;;;;;11.23;4.75;;;10.80;99.90;;;;;;5498225;26;19998;-70
2024/04/11 09:28:54;;;;;;;14.00;4.72;;;10.90;99.90;;;;;;5497822;26;20009;-72
2024/04/11 09:31:21;;;;;;;11.95;4.00;;;11.00;99.90;;;;;;5497612;26;20002;-72
2024/04/11 09:33:55;;;;;;;14.32;4.55;;;11.00;99.90;;;;;;5498421;26;20061;-72
2024/04/11 09:36:21;;;;;;;;;;;11.10;99.90;;;;;;5495483;26;20002;-72
2024/04/11 09:38:58;;;;;;;9.38;4.53;;;11.20;99.90;;;;;;5495207;26;19924;-70
2024/04/11 09:41:26;;;;;;;13.25;4.57;;;11.30;99.90;;;;;;5497899;26;19997;-70
2024/04/11 09:43:55;;;;;;;16.02;5.60;;;11.40;99.90;;;;;;5495469;26;20004;-72
2024/04/11 09:46:23;;;;;;;9.30;4.60;;;11.60;99.90;;;;;;5497166;26;20012;-71
2024/04/11 09:48:51;;;;;;;14.02;5.72;;;11.70;99.90;;;;;;5497308;26;20005;-72
2024/04/11 09:51:20;;;;;;;9.80;4.82;;;11.80;99.90;;;;;;5496019;26;19998;-71
2024/04/11 09:53:46;;;;;;;15.55;4.97;;;11.90;99.90;;;;;;5495496;26;20006;-73
2024/04/11 09:56:15;;;;;;;12.15;4.95;;;11.90;99.90;;;;;;5496495;26;20002;-71
2024/04/11 09:58:43;;;;;;;11.32;4.28;;;11.90;99.90;;;;;;5496867;26;20006;-71
2024/04/11 10:01:29;;;;;;;11.45;3.97;;;11.90;99.90;;;;;;5495364;26;19998;-74
2024/04/11 10:04:03;;;;;;;14.10;5.38;;;11.90;99.90;;;;;;5494970;26;20006;-71
2024/04/11 10:06:30;;;;;;;11.70;5.10;;;11.90;99.90;;;;;;5497324;26;20040;-70
2024/04/11 10:09:31;;;;;;;12.88;5.38;;;12.00;99.90;;;;;;5493895;26;20014;-70
2024/04/11 10:12:04;;;;;;;11.88;4.80;;;12.10;99.90;;;;;;5502631;26;20002;-71
2024/04/11 10:14:32;;;;;;;13.18;5.40;;;12.20;99.90;;;;;;5496774;26;19998;-72
2024/04/11 10:17:07;;;;;;;14.13;4.82;;;12.40;99.90;;;;;;5496813;26;20002;-69
2024/04/11 10:19:35;;;;;;;11.00;4.43;;;12.60;99.90;;;;;;5496084;26;20021;-71
2024/04/11 10:22:05;;;;;;;12.13;5.35;;;12.70;99.90;;;;;;5497067;26;20008;-71
2024/04/11 10:24:36;;;;;;;12.30;5.85;;;12.90;99.90;;;;;;5495447;26;20128;-72
2024/04/11 10:27:09;;;;;;;11.35;5.03;;;13.00;99.90;;;;;;5495492;26;20016;-71
2024/04/11 10:29:46;;;;;;;15.05;5.45;;;13.00;99.90;;;;;;5497685;26;20016;-71
2024/04/11 10:32:26;;;;;;;16.63;7.18;;;13.00;99.90;;;;;;5496001;26;20002;-71
2024/04/11 10:34:58;;;;;;;19.88;8.57;;;13.00;99.90;;;;;;5496957;26;20010;-71
2024/04/11 10:37:29;;;;;;;15.23;7.05;;;13.10;99.90;;;;;;5496973;26;20006;-70
2024/04/11 10:39:57;;;;;;;13.90;6.57;;;13.10;99.90;;;;;;5495843;26;20059;-70
2024/04/11 10:43:11;;;;;;;17.13;7.90;;;13.10;99.90;;;;;;5494299;26;19998;-73
2024/04/11 10:45:24;;;;;;;12.40;6.47;;;13.00;99.90;;;;;;5493585;26;20005;-72
2024/04/11 10:47:51;;;;;;;12.32;5.65;;;13.00;99.90;;;;;;5496776;26;20006;-71
2024/04/11 10:50:16;;;;;;;10.20;5.60;;;12.90;99.90;;;;;;5493638;26;20002;-73
2024/04/11 10:52:45;;;;;;;12.70;5.50;;;13.00;99.90;;;;;;5496447;26;20004;-71
2024/04/11 10:55:22;;;;;;;15.73;6.03;;;13.00;99.90;;;;;;5494048;26;20633;-71
2024/04/11 10:58:37;;;;;;;13.52;5.63;;;13.10;99.90;;;;;;5495747;26;19998;-74
2024/04/11 11:06:25;;;;;;;13.60;5.68;;;13.30;99.90;;;;;;5499439;26;20010;-72
2024/04/11 11:08:59;;;;;;;10.25;5.22;;;13.40;99.90;;;;;;5499730;26;20022;-71
2024/04/11 11:11:26;;;;;;;11.88;5.78;;;13.40;99.90;;;;;;5499851;26;19998;-72
2024/04/11 11:13:54;;;;;;;12.55;6.03;;;13.50;99.90;;;;;;5500393;26;20043;-73
2024/04/11 11:16:23;;;;;;;13.15;6.43;;;13.60;99.90;;;;;;5497966;26;19999;-72
2024/04/11 11:18:48;;;;;;;10.77;5.75;;;13.70;99.90;;;;;;5498006;26;20041;-72
2024/04/11 11:21:17;;;;;;;11.88;5.80;;;13.90;99.90;;;;;;5498299;26;20013;-70
2024/04/11 11:23:46;;;;;;;14.80;6.15;;;13.90;99.90;;;;;;5499406;26;20107;-71
2024/04/11 11:26:22;;;;;;;11.60;6.00;;;14.00;99.90;;;;;;5498930;26;20006;-72
2024/04/11 11:28:51;;;;;;;13.82;6.15;;;14.00;99.90;;;;;;5498794;26;21617;-71
2024/04/11 11:31:20;;;;;;;12.68;5.68;;;13.90;99.90;;;;;;5498310;26;19994;-71
2024/04/11 11:33:49;;;;;;;14.75;6.05;;;14.00;99.90;;;;;;5498552;26;20006;-74
2024/04/11 11:36:17;;;;;;;11.32;5.72;;;14.00;99.90;;;;;;5498831;26;19998;-72
2024/04/11 11:38:44;;;;;;;9.95;5.63;;;14.10;99.90;;;;;;5499004;26;19998;-72
2024/04/11 11:41:15;;;;;;;10.80;5.90;;;14.00;99.90;;;;;;5499675;26;20006;-72
2024/04/11 11:43:44;;;;;;;15.05;6.25;;;14.00;99.90;;;;;;5499808;26;20020;-73
2024/04/11 11:46:28;;;;;;;12.23;5.60;;;14.00;99.90;;;;;;5496922;26;20010;-72
2024/04/11 11:48:57;;;;;;;9.55;5.25;;;14.10;99.90;;;;;;5497735;26;20005;-73
2024/04/11 11:51:28;;;;;;;13.00;6.05;;;14.10;99.90;;;;;;5495701;26;19998;-71
2024/04/11 11:54:00;;;;;;;12.73;5.97;;;14.20;99.90;;;;;;5494675;26;20002;-74
2024/04/11 11:56:32;;;;;;;12.30;5.75;;;14.30;99.90;;;;;;5496115;26;20018;-70
2024/04/11 11:59:04;;;;;;;10.80;5.82;;;14.30;99.90;;;;;;5496501;26;20009;-72
2024/04/11 12:01:41;;;;;;;11.13;5.70;;;14.50;99.90;;;;;;5498880;26;20002;-70
2024/04/11 12:04:08;;;;;;;18.00;6.68;;;14.50;99.90;;;;;;5498510;26;20017;-71
2024/04/11 12:06:34;;;;;;;13.95;6.18;;;14.40;99.90;;;;;;5498791;26;21251;-74
2024/04/11 12:09:10;;;;;;;9.88;5.80;;;14.40;99.90;;;;;;5498001;26;20047;-71
2024/04/11 12:11:53;;;;;;;14.18;6.03;;;14.40;99.90;;;;;;5496419;26;20051;-75
2024/04/11 12:14:28;;;;;;;14.50;5.55;;;14.40;99.90;;;;;;5494781;26;19998;-71
2024/04/11 12:16:56;;;;;;;11.07;6.13;;;14.50;99.90;;;;;;5496800;26;20070;-71
2024/04/11 12:19:28;;;;;;;13.57;7.03;;;14.50;99.90;;;;;;5497829;26;19994;-72
2024/04/11 12:21:55;;;;;;;11.95;6.55;;;14.50;99.90;;;;;;5497759;26;20006;-73
2024/04/11 12:24:21;;;;;;;11.23;6.03;;;14.50;99.90;;;;;;5498682;26;20012;-73
2024/04/11 12:26:49;;;;;;;13.30;6.03;;;14.50;99.90;;;;;;5498877;26;20018;-74
2024/04/11 12:29:18;;;;;;;15.40;6.53;;;14.50;99.90;;;;;;5497392;26;19994;-72
2024/04/11 12:31:44;;;;;;;11.60;5.88;;;14.40;99.90;;;;;;5497615;26;20002;-75
2024/04/11 12:34:09;;;;;;;12.07;6.18;;;14.30;99.90;;;;;;5498146;26;20009;-72
2024/04/11 12:39:41;;;;;;;12.95;6.60;;;14.20;99.90;;;;;;5515557;26;20037;-73
2024/04/11 12:42:07;;;;;;;11.93;6.60;;;14.20;99.90;;;;;;5497990;26;20006;-74
2024/04/11 12:44:36;;;;;;;15.93;6.82;;;14.30;99.90;;;;;;5495514;26;20039;-73
2024/04/11 12:47:13;;;;;;;14.13;7.18;;;14.20;99.90;;;;;;5493379;26;20002;-73
2024/04/11 12:49:48;;;;;;;14.13;7.15;;;14.20;99.90;;;;;;5490828;26;19994;-73
2024/04/11 12:52:23;;;;;;;17.58;8.07;;;14.20;99.90;;;;;;5492767;26;20008;-72
2024/04/11 12:55:00;;;;;;;10.65;6.43;;;14.30;99.90;;;;;;5497593;26;20013;-73
2024/04/11 12:57:29;;;;;;;13.70;6.88;;;14.40;99.90;;;;;;5498735;26;20034;-73
2024/04/11 13:00:09;;;;;;;14.15;7.10;;;14.40;99.90;;;;;;5496532;26;19994;-72